Time;durP1;ratioP1;P1;durP2;ratioP2;P2;SDS_P1;SDS_P2;PMS_P1;PMS_P2;Temp;Humidity;BMP_temperature;BMP_pressure;BME280_temperature;BME280_humidity;BME280_pressure;Samples;Min_cycle;Max_cycle;Signal;HPM_P1;HPM_P2
2022/07/17 00:01:34;;;;;;;5.80;3.38;;;15.80;90.00;;;;;;10296496;28;20585;-89
2022/07/17 00:06:36;;;;;;;4.72;2.13;;;15.70;90.50;;;;;;10277117;28;20304;-89
2022/07/17 00:11:38;;;;;;;5.60;1.95;;;15.70;90.80;;;;;;10284666;28;20050;-90
2022/07/17 00:16:39;;;;;;;6.25;1.40;;;15.60;91.50;;;;;;10290765;28;20046;-89
2022/07/17 00:21:42;;;;;;;0.82;0.30;;;15.40;92.20;;;;;;10268760;28;20055;-88
2022/07/17 00:26:44;;;;;;;2.15;0.40;;;15.10;92.80;;;;;;10287315;28;20086;-88
2022/07/17 00:31:47;;;;;;;1.10;0.30;;;15.10;92.90;;;;;;10299454;28;20177;-89
2022/07/17 00:36:48;;;;;;;1.67;0.40;;;15.10;93.00;;;;;;10283484;28;20047;-88
2022/07/17 00:41:50;;;;;;;0.77;0.40;;;15.00;93.40;;;;;;10274858;28;20061;-89
2022/07/17 00:46:52;;;;;;;1.20;0.50;;;14.80;93.70;;;;;;10271786;28;20137;-88
2022/07/17 00:51:54;;;;;;;3.88;0.60;;;14.80;94.40;;;;;;10288229;28;20058;-88
2022/07/17 00:56:58;;;;;;;7.53;0.65;;;14.70;94.80;;;;;;10320426;28;20137;-90
2022/07/17 01:02:06;;;;;;;2.22;0.40;;;14.60;94.80;;;;;;10288658;28;20070;-90
2022/07/17 01:07:08;;;;;;;1.73;0.20;;;14.50;95.70;;;;;;10318027;28;20047;-90
2022/07/17 01:12:10;;;;;;;2.90;0.30;;;14.50;95.40;;;;;;10290043;28;20066;-90
2022/07/17 01:17:12;;;;;;;1.60;0.40;;;14.50;95.90;;;;;;10287708;28;20076;-90
2022/07/17 01:22:14;;;;;;;1.63;0.50;;;14.50;96.50;;;;;;10302872;28;20681;-91
2022/07/17 01:27:16;;;;;;;1.25;0.40;;;14.30;97.10;;;;;;10278370;28;20093;-92
2022/07/17 01:32:18;;;;;;;2.85;0.45;;;14.30;97.50;;;;;;10303308;28;20034;-92
2022/07/17 01:37:20;;;;;;;5.85;0.30;;;14.10;98.00;;;;;;10178003;28;20047;-93
2022/07/17 01:42:23;;;;;;;4.40;0.30;;;14.10;99.00;;;;;;10188643;28;20454;-92
2022/07/17 01:47:25;;;;;;;2.75;0.30;;;14.10;99.50;;;;;;10286959;28;20042;-92
2022/07/17 01:52:28;;;;;;;1.23;0.30;;;14.00;99.50;;;;;;10292225;28;20520;-92
2022/07/17 01:57:30;;;;;;;1.73;0.30;;;13.80;99.90;;;;;;10293496;28;20054;-92
2022/07/17 02:02:35;;;;;;;3.22;0.25;;;13.70;99.90;;;;;;10267405;28;20050;-92
2022/07/17 02:07:39;;;;;;;3.60;0.30;;;13.70;99.90;;;;;;10281575;28;20063;-91
2022/07/17 02:12:44;;;;;;;4.78;0.50;;;13.50;99.90;;;;;;10277546;28;20551;-91
2022/07/17 02:17:46;;;;;;;5.07;0.55;;;13.50;99.90;;;;;;10280482;28;20055;-91
2022/07/17 02:22:48;;;;;;;2.47;0.40;;;13.40;99.90;;;;;;10280932;28;20050;-91
2022/07/17 02:27:51;;;;;;;4.50;0.47;;;13.40;99.90;;;;;;10282160;28;20061;-91
2022/07/17 02:32:53;;;;;;;5.15;0.73;;;13.50;99.90;;;;;;10278139;28;20058;-91
2022/07/17 02:37:54;;;;;;;2.13;0.50;;;13.40;99.90;;;;;;10256373;28;20055;-91
2022/07/17 02:42:56;;;;;;;2.45;0.40;;;13.30;99.90;;;;;;10270780;28;20113;-92
2022/07/17 02:47:59;;;;;;;1.52;0.40;;;13.20;99.90;;;;;;10275755;28;20054;-91
2022/07/17 02:53:01;;;;;;;6.15;0.40;;;13.20;99.90;;;;;;10259282;28;20055;-91
2022/07/17 02:58:03;;;;;;;3.45;0.40;;;13.20;99.90;;;;;;10278874;28;20082;-90
2022/07/17 03:03:05;;;;;;;0.95;0.30;;;13.10;99.90;;;;;;10284131;28;20047;-91
2022/07/17 03:08:07;;;;;;;1.15;0.20;;;13.10;99.90;;;;;;10302247;28;20200;-91
2022/07/17 03:13:09;;;;;;;4.82;0.32;;;13.00;99.90;;;;;;10298401;28;20126;-91
2022/07/17 03:18:11;;;;;;;1.40;0.40;;;12.90;99.90;;;;;;10290272;28;20600;-92
2022/07/17 03:23:14;;;;;;;0.75;0.30;;;12.70;99.90;;;;;;10203907;28;20050;-92
2022/07/17 03:28:16;;;;;;;2.03;0.38;;;12.70;99.90;;;;;;10220263;28;20038;-92
2022/07/17 03:33:18;;;;;;;2.13;0.30;;;12.70;99.90;;;;;;10258867;28;20053;-92
2022/07/17 03:38:21;;;;;;;3.08;0.30;;;12.70;99.90;;;;;;10291457;28;20496;-92
2022/07/17 03:43:25;;;;;;;1.23;0.30;;;12.50;99.90;;;;;;10136575;28;20046;-93
2022/07/17 03:48:29;;;;;;;2.30;0.30;;;12.50;99.90;;;;;;10196246;28;20043;-92
2022/07/17 03:53:35;;;;;;;2.05;0.45;;;12.50;99.90;;;;;;10261905;28;20046;-92
2022/07/17 03:58:37;;;;;;;0.90;0.28;;;12.60;99.90;;;;;;10268445;28;20106;-92
2022/07/17 04:03:39;;;;;;;0.45;0.30;;;12.60;99.90;;;;;;10211627;28;20035;-93
2022/07/17 04:08:42;;;;;;;0.75;0.30;;;12.60;99.90;;;;;;10036759;28;20680;-93
2022/07/17 04:13:49;;;;;;;4.05;0.40;;;12.60;99.90;;;;;;10049264;28;20047;-93
2022/07/17 04:19:11;;;;;;;1.42;0.38;;;12.60;99.90;;;;;;10133896;28;20082;-93
2022/07/17 04:24:53;;;;;;;1.17;0.30;;;12.50;99.90;;;;;;9952150;28;20137;-93
2022/07/17 04:31:18;;;;;;;1.50;0.20;;;12.50;99.90;;;;;;10017700;28;20040;-93
2022/07/17 04:37:13;;;;;;;5.45;1.40;;;12.50;99.90;;;;;;9921799;28;20060;-93
2022/07/17 04:42:41;;;;;;;1.13;0.30;;;12.50;99.90;;;;;;9901452;28;20109;-93
2022/07/17 04:47:45;;;;;;;3.43;0.50;;;12.50;99.90;;;;;;10137934;28;20139;-93
2022/07/17 05:00:52;;;;;;;0.70;0.22;;;12.70;99.90;;;;;;10009533;28;20035;-94
2022/07/17 05:06:57;;;;;;;2.33;0.30;;;12.70;99.90;;;;;;10176002;23;20050;-61
2022/07/17 05:11:59;;;;;;;4.15;0.30;;;12.90;99.90;;;;;;10317831;28;20079;-60
2022/07/17 05:17:02;;;;;;;0.55;0.20;;;13.00;99.90;;;;;;10317133;28;20432;-61
2022/07/17 05:22:04;;;;;;;0.68;0.40;;;13.10;99.90;;;;;;10296911;28;20595;-61
2022/07/17 05:27:06;;;;;;;0.68;0.20;;;13.30;99.90;;;;;;10321618;28;20618;-61
2022/07/17 05:32:08;;;;;;;0.82;0.20;;;13.40;99.90;;;;;;10318345;28;20489;-61
2022/07/17 05:37:09;;;;;;;0.38;0.15;;;13.60;99.90;;;;;;10315948;28;20400;-60
2022/07/17 05:42:11;;;;;;;2.15;0.20;;;13.80;99.90;;;;;;10320685;28;20053;-62
2022/07/17 05:47:13;;;;;;;1.40;0.17;;;14.00;99.90;;;;;;10318009;28;20046;-64
2022/07/17 05:52:14;;;;;;;0.90;0.20;;;14.20;99.90;;;;;;10312290;28;20064;-61
2022/07/17 05:57:16;;;;;;;5.55;0.30;;;14.40;99.90;;;;;;10317632;28;20046;-61
2022/07/17 06:02:18;;;;;;;2.20;0.32;;;14.60;99.90;;;;;;10314881;28;20045;-63
2022/07/17 06:07:19;;;;;;;1.85;0.30;;;14.90;99.90;;;;;;10288059;28;20677;-61
2022/07/17 06:12:21;;;;;;;3.65;0.20;;;15.10;99.90;;;;;;10253427;28;20054;-61
2022/07/17 06:17:23;;;;;;;3.28;0.30;;;15.30;99.90;;;;;;10273807;28;20461;-61
2022/07/17 06:22:24;;;;;;;1.52;0.17;;;15.50;99.90;;;;;;10267753;28;20409;-61
2022/07/17 06:27:26;;;;;;;1.83;0.20;;;15.80;99.90;;;;;;10267976;28;20457;-61
2022/07/17 06:32:28;;;;;;;2.45;0.20;;;16.10;99.90;;;;;;10259275;28;20514;-61
2022/07/17 06:37:30;;;;;;;1.23;0.13;;;16.40;99.90;;;;;;10266078;28;20051;-62
2022/07/17 06:42:31;;;;;;;2.65;0.20;;;16.60;99.80;;;;;;10282105;28;20142;-62
2022/07/17 06:47:33;;;;;;;2.85;0.20;;;16.80;98.70;;;;;;10256488;28;20051;-62
2022/07/17 06:52:35;;;;;;;3.90;0.65;;;17.00;97.90;;;;;;10240470;28;20042;-61
2022/07/17 06:57:37;;;;;;;0.35;0.10;;;17.20;97.70;;;;;;10250334;28;20402;-62
2022/07/17 07:02:39;;;;;;;4.10;0.30;;;17.40;96.40;;;;;;10269008;28;20061;-61
2022/07/17 07:07:41;;;;;;;4.80;0.20;;;17.60;96.70;;;;;;10273914;28;20055;-61
2022/07/17 07:12:43;;;;;;;1.17;0.20;;;17.70;96.40;;;;;;10295462;28;20070;-61
2022/07/17 07:17:45;;;;;;;1.05;0.20;;;17.90;95.40;;;;;;10304425;28;20065;-61
2022/07/17 07:22:46;;;;;;;4.57;0.22;;;18.20;96.10;;;;;;10299449;28;20047;-61
2022/07/17 07:27:48;;;;;;;0.88;0.22;;;18.50;95.30;;;;;;10300582;28;20050;-61
2022/07/17 07:32:50;;;;;;;0.73;0.28;;;18.70;94.70;;;;;;10293150;28;20065;-61
2022/07/17 07:37:51;;;;;;;4.82;0.20;;;18.90;93.90;;;;;;10289913;28;20047;-61
2022/07/17 07:42:53;;;;;;;2.00;0.20;;;19.10;94.50;;;;;;10293969;28;20042;-61
2022/07/17 07:47:55;;;;;;;1.00;0.10;;;19.30;94.00;;;;;;10289821;28;20043;-60
2022/07/17 07:52:57;;;;;;;0.52;0.10;;;19.50;92.90;;;;;;10281879;28;20080;-61
2022/07/17 07:58:16;;;;;;;2.83;0.20;;;19.60;91.40;;;;;;10286973;28;20042;-62
2022/07/17 08:03:18;;;;;;;0.30;0.10;;;19.70;90.80;;;;;;10270741;28;20050;-61
2022/07/17 08:08:26;;;;;;;1.58;0.30;;;19.90;90.90;;;;;;10279327;28;20487;-66
2022/07/17 08:13:28;;;;;;;1.48;0.10;;;20.10;90.80;;;;;;10266746;28;20070;-66
2022/07/17 08:18:29;;;;;;;0.60;0.10;;;20.20;89.50;;;;;;10265162;28;20043;-67
2022/07/17 08:23:31;;;;;;;0.75;0.20;;;20.40;86.20;;;;;;10266896;28;20055;-65
2022/07/17 08:28:33;;;;;;;1.35;0.32;;;20.60;87.70;;;;;;10264272;28;20050;-65
2022/07/17 08:33:35;;;;;;;0.55;0.13;;;20.70;84.90;;;;;;10265615;28;20485;-66
2022/07/17 08:38:37;;;;;;;3.60;0.10;;;20.80;81.80;;;;;;10264696;28;20043;-67
2022/07/17 08:43:38;;;;;;;1.75;0.47;;;21.10;81.10;;;;;;10263574;28;20265;-66
2022/07/17 08:48:45;;;;;;;4.68;0.20;;;21.20;81.30;;;;;;10264304;28;20140;-66
2022/07/17 08:53:47;;;;;;;1.00;0.20;;;21.30;77.90;;;;;;10264837;28;20066;-63
2022/07/17 08:58:49;;;;;;;0.50;0.10;;;21.60;78.00;;;;;;10266999;28;20047;-63
2022/07/17 09:04:06;;;;;;;1.45;0.17;;;21.80;77.00;;;;;;10265562;28;20051;-64
2022/07/17 09:09:13;;;;;;;1.75;0.10;;;21.90;75.10;;;;;;10264884;28;20054;-64
2022/07/17 09:14:15;;;;;;;4.18;0.10;;;22.10;75.40;;;;;;10286148;28;20050;-64
2022/07/17 09:19:26;;;;;;;2.47;0.20;;;22.20;73.40;;;;;;10302411;28;20620;-63
2022/07/17 09:24:42;;;;;;;3.30;0.08;;;22.40;75.20;;;;;;10301058;28;20073;-64
2022/07/17 09:30:03;;;;;;;2.43;0.20;;;22.70;72.10;;;;;;10286124;28;20469;-65
2022/07/17 09:35:10;;;;;;;0.55;0.10;;;22.80;70.60;;;;;;10295833;28;20508;-66
2022/07/17 09:45:36;;;;;;;1.88;0.20;;;23.00;71.30;;;;;;10273417;28;20071;-65
2022/07/17 09:50:38;;;;;;;1.30;0.20;;;23.30;69.20;;;;;;10289396;28;20057;-65
2022/07/17 09:55:40;;;;;;;2.08;0.20;;;23.40;69.30;;;;;;10298651;28;20047;-66
2022/07/17 10:00:48;;;;;;;3.85;0.20;;;23.60;68.60;;;;;;10296648;28;20061;-66
2022/07/17 10:05:50;;;;;;;0.20;0.10;;;23.60;65.90;;;;;;10281954;28;20051;-66
2022/07/17 10:10:52;;;;;;;1.45;0.30;;;23.80;63.10;;;;;;10280724;28;20050;-68
2022/07/17 10:15:54;;;;;;;2.28;0.10;;;24.10;66.40;;;;;;10300774;28;20054;-67
2022/07/17 10:21:07;;;;;;;1.13;0.10;;;24.20;64.10;;;;;;10289756;28;20513;-68
2022/07/17 10:26:10;;;;;;;4.03;0.40;;;24.10;61.50;;;;;;10282561;28;20047;-68
2022/07/17 10:31:25;;;;;;;1.45;0.10;;;24.20;62.90;;;;;;10286440;28;20054;-69
2022/07/17 10:36:38;;;;;;;2.40;0.10;;;24.50;59.80;;;;;;10288539;28;20054;-66
2022/07/17 10:41:41;;;;;;;1.35;0.10;;;24.60;59.90;;;;;;10294619;28;20049;-65
2022/07/17 10:46:43;;;;;;;1.08;0.03;;;24.90;59.00;;;;;;10296804;28;20513;-65
2022/07/17 10:51:46;;;;;;;1.30;0.10;;;25.10;60.40;;;;;;10285484;28;20735;-66
2022/07/17 10:56:48;;;;;;;0.20;0.15;;;25.30;59.90;;;;;;10273137;28;20122;-66
2022/07/17 11:01:57;;;;;;;1.23;0.10;;;25.70;59.70;;;;;;10289716;28;20050;-66
2022/07/17 11:07:06;;;;;;;3.40;0.30;;;25.50;51.60;;;;;;10287541;28;20043;-65
2022/07/17 11:12:08;;;;;;;2.13;0.30;;;26.00;55.40;;;;;;10294899;28;20058;-65
2022/07/17 11:17:09;;;;;;;0.43;0.10;;;26.30;55.30;;;;;;10276010;28;20443;-66
2022/07/17 11:22:23;;;;;;;1.98;0.20;;;26.50;56.90;;;;;;10271361;28;20145;-67
2022/07/17 11:27:28;;;;;;;0.93;0.10;;;26.70;57.60;;;;;;10281197;28;20109;-67
2022/07/17 11:32:38;;;;;;;1.20;0.10;;;26.90;54.60;;;;;;10298642;28;20047;-65
2022/07/17 11:37:40;;;;;;;3.10;0.40;;;26.80;53.30;;;;;;10286274;28;20069;-65
2022/07/17 11:42:43;;;;;;;0.15;0.03;;;27.10;53.10;;;;;;10271106;28;20158;-66
2022/07/17 11:47:48;;;;;;;2.08;0.10;;;27.20;57.20;;;;;;10308397;28;20054;-65
2022/07/17 11:52:50;;;;;;;1.75;0.20;;;27.30;55.30;;;;;;10301349;28;20054;-65
2022/07/17 11:57:54;;;;;;;0.05;0.00;;;27.50;50.20;;;;;;10300011;28;20065;-65
2022/07/17 12:03:04;;;;;;;2.75;0.10;;;27.50;49.20;;;;;;10289284;28;20046;-66
2022/07/17 12:08:17;;;;;;;0.60;0.10;;;27.70;52.40;;;;;;10288149;28;20059;-66
2022/07/17 12:13:19;;;;;;;0.95;0.10;;;27.90;51.30;;;;;;10282904;28;20081;-67
2022/07/17 12:18:29;;;;;;;2.67;0.20;;;27.80;51.50;;;;;;10281764;28;20444;-66
2022/07/17 12:23:37;;;;;;;1.52;0.15;;;27.80;54.50;;;;;;10293437;28;20055;-71
2022/07/17 12:28:39;;;;;;;1.10;0.20;;;27.90;51.30;;;;;;10292124;28;20059;-70
2022/07/17 12:33:42;;;;;;;0.50;0.10;;;28.10;51.10;;;;;;10268768;28;20074;-73
2022/07/17 12:38:44;;;;;;;2.13;0.10;;;28.10;52.10;;;;;;10303763;28;20046;-70
2022/07/17 12:43:46;;;;;;;0.55;0.10;;;28.20;51.50;;;;;;10279511;28;20106;-71
2022/07/17 12:48:48;;;;;;;2.15;0.10;;;28.10;49.40;;;;;;10277039;28;20042;-72
2022/07/17 12:53:49;;;;;;;11.27;1.30;;;28.20;49.00;;;;;;10298358;28;20047;-72
2022/07/17 12:58:51;;;;;;;0.60;0.15;;;28.20;49.50;;;;;;10285925;28;20089;-72
2022/07/17 13:04:00;;;;;;;0.35;0.10;;;28.20;49.40;;;;;;10299336;28;20051;-70
2022/07/17 13:09:02;;;;;;;0.90;0.20;;;28.30;48.00;;;;;;10287462;28;20053;-71
2022/07/17 13:14:06;;;;;;;0.22;0.10;;;28.30;45.20;;;;;;10299701;28;20083;-70
2022/07/17 13:19:08;;;;;;;1.55;0.10;;;28.40;48.60;;;;;;10287802;28;20093;-70
2022/07/17 13:24:11;;;;;;;0.88;0.10;;;28.50;47.70;;;;;;10308626;28;20050;-69
2022/07/17 13:29:13;;;;;;;0.30;0.20;;;28.50;48.10;;;;;;10294357;28;20409;-70
2022/07/17 13:34:15;;;;;;;1.75;0.10;;;28.60;47.00;;;;;;10293781;28;20058;-72
2022/07/17 13:39:17;;;;;;;1.88;0.10;;;28.70;46.20;;;;;;10288207;28;20043;-71
2022/07/17 13:44:19;;;;;;;2.15;0.20;;;28.90;46.20;;;;;;10275336;28;20073;-70
2022/07/17 13:49:21;;;;;;;0.20;0.10;;;29.10;46.00;;;;;;10297330;28;20073;-70
2022/07/17 13:54:24;;;;;;;1.67;0.10;;;29.10;44.40;;;;;;10291371;28;20112;-72
2022/07/17 13:59:27;;;;;;;1.90;0.20;;;29.40;44.60;;;;;;10295190;28;20030;-73
2022/07/17 14:04:28;;;;;;;0.93;0.10;;;29.60;45.40;;;;;;10279587;28;20055;-71
2022/07/17 14:09:30;;;;;;;0.40;0.15;;;29.80;45.20;;;;;;10247724;28;20124;-74
2022/07/17 14:14:33;;;;;;;0.28;0.10;;;30.00;44.50;;;;;;10221049;28;23293;-72
2022/07/17 14:19:36;;;;;;;0.40;0.00;;;30.30;45.60;;;;;;10260006;28;20267;-72
2022/07/17 14:24:43;;;;;;;0.40;0.10;;;30.40;45.10;;;;;;10259472;28;20451;-61
2022/07/17 14:29:45;;;;;;;1.75;0.13;;;30.80;44.00;;;;;;10268574;28;20050;-61
2022/07/17 14:34:47;;;;;;;1.25;0.35;;;31.10;42.10;;;;;;10252245;28;20162;-63
2022/07/17 14:39:49;;;;;;;8.05;0.73;;;31.40;43.40;;;;;;10270189;28;20509;-61
2022/07/17 14:44:51;;;;;;;4.60;2.63;;;32.00;43.30;;;;;;10249955;28;20053;-63
2022/07/17 14:49:52;;;;;;;3.58;1.00;;;32.60;43.30;;;;;;10260848;28;20061;-59
2022/07/17 14:54:54;;;;;;;2.17;0.30;;;33.10;42.40;;;;;;10262127;28;20051;-62
2022/07/17 14:59:56;;;;;;;3.83;0.10;;;33.60;41.40;;;;;;10268648;28;20494;-62
2022/07/17 15:04:57;;;;;;;2.05;0.20;;;33.80;41.70;;;;;;10255416;28;20051;-62
2022/07/17 15:09:59;;;;;;;1.05;0.10;;;33.90;41.00;;;;;;10300267;28;20445;-61
2022/07/17 15:15:01;;;;;;;0.60;0.13;;;33.80;41.70;;;;;;10303578;28;20394;-62
2022/07/17 15:20:03;;;;;;;3.63;0.10;;;33.70;40.70;;;;;;10304810;28;20120;-64
2022/07/17 15:25:05;;;;;;;0.60;0.10;;;33.70;41.50;;;;;;10298276;28;20050;-64
2022/07/17 15:30:07;;;;;;;1.60;0.10;;;33.40;41.40;;;;;;10299085;28;20663;-63
2022/07/17 15:35:09;;;;;;;0.80;0.10;;;33.40;40.70;;;;;;10298601;28;20046;-63
2022/07/17 15:40:11;;;;;;;0.75;0.10;;;33.20;41.80;;;;;;10286986;28;20049;-64
2022/07/17 15:45:13;;;;;;;0.55;0.10;;;33.30;40.60;;;;;;10296095;28;20047;-63
2022/07/17 15:50:15;;;;;;;2.30;0.17;;;33.40;40.90;;;;;;10306248;28;20056;-63
2022/07/17 15:55:18;;;;;;;1.73;0.30;;;33.70;40.80;;;;;;10300744;28;20046;-61
2022/07/17 16:00:20;;;;;;;0.10;0.10;;;33.90;40.30;;;;;;10295576;28;20405;-62
2022/07/17 16:05:22;;;;;;;0.25;0.10;;;34.00;38.00;;;;;;10296349;28;20053;-61
2022/07/17 16:10:24;;;;;;;0.75;0.25;;;34.00;38.20;;;;;;10297771;28;20050;-61
2022/07/17 16:15:26;;;;;;;0.30;0.10;;;34.20;38.80;;;;;;10299298;28;20049;-61
2022/07/17 16:20:28;;;;;;;2.05;0.15;;;34.20;38.50;;;;;;10293981;28;20050;-61
2022/07/17 16:25:30;;;;;;;0.57;0.20;;;34.30;38.30;;;;;;10290184;28;20057;-61
2022/07/17 16:30:32;;;;;;;1.48;0.20;;;34.10;38.90;;;;;;10298430;28;20259;-61
2022/07/17 16:35:34;;;;;;;0.32;0.20;;;34.10;38.70;;;;;;10310550;28;20042;-62
2022/07/17 16:40:36;;;;;;;1.27;0.20;;;34.00;38.60;;;;;;10316167;28;20049;-61
2022/07/17 16:45:38;;;;;;;1.45;0.10;;;34.00;38.50;;;;;;10313464;28;20440;-61
2022/07/17 16:50:43;;;;;;;0.50;0.17;;;33.70;38.60;;;;;;10307354;28;20504;-61
2022/07/17 16:55:45;;;;;;;2.95;0.10;;;33.70;38.80;;;;;;10296815;28;20066;-62
2022/07/17 17:00:47;;;;;;;2.28;0.10;;;33.50;37.20;;;;;;10304103;28;20055;-61
2022/07/17 17:05:49;;;;;;;1.55;0.10;;;33.10;38.00;;;;;;10308992;28;20058;-61
2022/07/17 17:10:51;;;;;;;1.65;0.30;;;33.10;38.70;;;;;;10299266;28;20054;-61
2022/07/17 17:15:52;;;;;;;0.93;0.20;;;33.10;38.10;;;;;;10299338;28;20077;-61
2022/07/17 17:20:54;;;;;;;4.95;0.20;;;33.00;39.80;;;;;;10300656;28;20540;-61
2022/07/17 17:25:57;;;;;;;1.63;0.10;;;32.90;39.50;;;;;;10285413;28;20055;-62
2022/07/17 17:30:59;;;;;;;4.35;0.20;;;32.90;39.20;;;;;;10284137;28;20042;-60
2022/07/17 17:36:02;;;;;;;1.48;0.17;;;32.90;40.40;;;;;;10283464;28;20046;-61
2022/07/17 17:41:04;;;;;;;3.30;0.13;;;32.60;39.80;;;;;;10298007;28;20062;-61
2022/07/17 17:46:05;;;;;;;3.25;0.10;;;32.40;39.00;;;;;;10309996;28;20062;-60
2022/07/17 17:51:09;;;;;;;2.22;0.10;;;32.20;39.40;;;;;;10290380;28;20130;-61
2022/07/17 17:56:10;;;;;;;2.47;0.10;;;32.00;39.70;;;;;;10310974;28;20085;-61
2022/07/17 18:01:12;;;;;;;1.70;0.10;;;31.90;39.90;;;;;;10300467;28;20089;-60
2022/07/17 18:06:14;;;;;;;0.10;0.10;;;31.90;39.40;;;;;;10306429;28;20050;-61
2022/07/17 18:11:16;;;;;;;3.35;0.20;;;31.70;40.10;;;;;;10301192;28;20105;-62
2022/07/17 18:16:18;;;;;;;0.43;0.10;;;31.40;41.30;;;;;;10304940;28;20748;-62
2022/07/17 18:21:21;;;;;;;0.35;0.10;;;30.90;42.20;;;;;;10301547;28;20401;-61
2022/07/17 18:26:23;;;;;;;0.80;0.20;;;30.40;42.60;;;;;;10321596;28;20109;-61
2022/07/17 18:31:25;;;;;;;1.63;0.20;;;30.00;43.30;;;;;;10296390;28;20050;-61
2022/07/17 18:36:26;;;;;;;0.50;0.17;;;29.40;44.40;;;;;;10291623;28;20053;-61
2022/07/17 18:41:29;;;;;;;3.40;0.17;;;29.00;45.10;;;;;;10297965;28;20049;-60
2022/07/17 18:46:30;;;;;;;3.55;0.20;;;28.50;45.60;;;;;;10306599;28;20473;-61
2022/07/17 18:51:33;;;;;;;0.63;0.20;;;28.20;46.30;;;;;;10313302;28;20070;-60
2022/07/17 18:56:34;;;;;;;12.60;0.20;;;27.80;46.90;;;;;;10296879;28;20116;-61
2022/07/17 19:01:37;;;;;;;0.63;0.10;;;27.50;46.80;;;;;;10301866;28;20053;-61
2022/07/17 19:06:39;;;;;;;2.00;0.30;;;27.20;47.40;;;;;;10307103;28;20572;-62
2022/07/17 19:11:41;;;;;;;5.00;0.22;;;26.90;47.70;;;;;;10272239;28;20053;-61
2022/07/17 19:16:43;;;;;;;3.35;0.30;;;26.60;49.30;;;;;;10298499;28;20058;-61
2022/07/17 19:21:45;;;;;;;5.35;0.50;;;26.30;50.30;;;;;;10290622;28;20533;-61
2022/07/17 19:26:47;;;;;;;1.30;0.60;;;26.00;51.60;;;;;;10285817;28;20062;-61
2022/07/17 19:31:49;;;;;;;4.25;0.20;;;25.70;52.80;;;;;;10288766;28;20054;-61
2022/07/17 19:36:51;;;;;;;9.63;0.40;;;25.40;53.60;;;;;;10287358;28;20071;-61
2022/07/17 19:41:52;;;;;;;15.15;0.50;;;25.20;53.90;;;;;;10293755;28;20053;-62
2022/07/17 19:46:54;;;;;;;9.18;0.47;;;24.90;54.90;;;;;;10293653;28;20054;-61
2022/07/17 19:51:56;;;;;;;5.88;0.60;;;24.70;56.10;;;;;;10291386;28;20049;-61
2022/07/17 19:56:57;;;;;;;15.18;0.68;;;24.40;57.20;;;;;;10309426;28;20105;-68
2022/07/17 20:01:59;;;;;;;29.58;1.00;;;24.10;57.90;;;;;;10293846;28;20045;-70
2022/07/17 20:07:01;;;;;;;33.08;1.63;;;23.90;58.70;;;;;;10291302;28;20108;-70
2022/07/17 20:12:02;;;;;;;10.38;0.90;;;23.70;59.10;;;;;;10282024;28;20054;-71
2022/07/17 20:17:04;;;;;;;13.70;0.93;;;23.40;58.50;;;;;;10298096;28;20058;-69
2022/07/17 20:22:06;;;;;;;10.57;0.60;;;23.20;58.60;;;;;;10295476;28;20046;-66
2022/07/17 20:27:08;;;;;;;7.57;0.50;;;23.00;58.90;;;;;;10287568;28;20514;-67
2022/07/17 20:32:10;;;;;;;6.38;0.50;;;22.80;59.70;;;;;;10294672;28;20047;-66
2022/07/17 20:37:11;;;;;;;14.10;0.70;;;22.70;60.70;;;;;;10283032;28;20144;-66
2022/07/17 20:42:13;;;;;;;12.27;1.02;;;22.60;61.50;;;;;;10292073;28;20055;-66
2022/07/17 20:47:15;;;;;;;9.82;1.23;;;22.40;62.70;;;;;;10283329;28;20058;-66
2022/07/17 20:52:16;;;;;;;30.15;1.65;;;22.20;63.50;;;;;;10289181;28;20054;-66
2022/07/17 20:57:23;;;;;;;11.38;1.35;;;22.10;64.20;;;;;;10279912;28;20121;-65
2022/07/17 21:02:25;;;;;;;13.38;1.02;;;21.80;64.70;;;;;;10287116;28;20046;-65
2022/07/17 21:07:27;;;;;;;13.15;0.80;;;21.70;65.60;;;;;;10303988;28;20054;-65
2022/07/17 21:12:28;;;;;;;15.05;1.55;;;21.50;65.70;;;;;;10289400;28;20611;-66
2022/07/17 21:17:30;;;;;;;9.32;0.93;;;21.40;66.50;;;;;;10315980;28;20590;-65
2022/07/17 21:22:36;;;;;;;7.93;0.60;;;21.20;66.50;;;;;;10309519;28;20105;-64
2022/07/17 21:27:40;;;;;;;0.75;0.20;;;21.10;66.90;;;;;;10291218;28;20042;-63
2022/07/17 21:32:42;;;;;;;1.90;0.30;;;20.90;67.30;;;;;;10275865;28;20059;-63
2022/07/17 21:37:43;;;;;;;5.40;0.45;;;20.70;67.80;;;;;;10299736;28;20054;-62
2022/07/17 21:42:45;;;;;;;13.82;0.90;;;20.60;68.20;;;;;;10287436;28;20059;-63
2022/07/17 21:47:47;;;;;;;17.65;1.10;;;20.60;69.30;;;;;;10293122;28;20078;-63
2022/07/17 21:52:48;;;;;;;11.75;1.05;;;20.50;70.40;;;;;;10288482;28;20508;-63
2022/07/17 21:57:51;;;;;;;9.40;1.50;;;20.30;71.90;;;;;;10285531;28;20572;-63
2022/07/17 22:02:53;;;;;;;5.30;0.80;;;20.20;71.30;;;;;;10301073;28;20092;-61
2022/07/17 22:07:55;;;;;;;7.78;0.75;;;20.10;73.00;;;;;;10292695;28;20079;-61
2022/07/17 22:12:58;;;;;;;10.95;0.68;;;19.90;73.10;;;;;;10288901;28;20674;-61
2022/07/17 22:18:00;;;;;;;5.53;0.68;;;19.80;74.00;;;;;;10300068;28;20046;-61
2022/07/17 22:23:02;;;;;;;10.88;0.88;;;19.60;75.40;;;;;;10298289;28;20051;-61
2022/07/17 22:28:05;;;;;;;4.30;0.47;;;19.50;76.40;;;;;;10283119;28;20043;-61
2022/07/17 22:33:08;;;;;;;9.30;1.52;;;19.30;77.30;;;;;;10294822;28;20130;-61
2022/07/17 22:38:10;;;;;;;7.03;0.63;;;19.30;76.90;;;;;;10295304;28;20113;-61
2022/07/17 22:43:12;;;;;;;6.22;0.50;;;19.10;77.40;;;;;;10287396;28;20047;-61
2022/07/17 22:48:14;;;;;;;1.83;0.38;;;19.00;76.90;;;;;;10291618;28;20085;-61
2022/07/17 22:53:15;;;;;;;2.60;0.38;;;18.90;77.30;;;;;;10299102;28;20058;-61
2022/07/17 22:58:17;;;;;;;2.38;0.40;;;18.70;77.60;;;;;;10300870;28;20057;-61
2022/07/17 23:03:20;;;;;;;1.10;0.30;;;18.60;78.80;;;;;;10295657;28;20038;-61
2022/07/17 23:08:22;;;;;;;1.83;0.40;;;18.60;78.70;;;;;;10307693;28;20174;-61
2022/07/17 23:13:24;;;;;;;0.90;0.20;;;18.40;79.10;;;;;;10294474;28;20049;-61
2022/07/17 23:18:26;;;;;;;0.75;0.22;;;17.90;79.30;;;;;;10294602;28;20125;-61
2022/07/17 23:23:27;;;;;;;1.20;0.30;;;18.30;79.80;;;;;;10290760;28;20175;-60
2022/07/17 23:28:29;;;;;;;2.05;0.20;;;18.20;80.80;;;;;;10284183;28;20482;-61
2022/07/17 23:33:31;;;;;;;1.60;0.20;;;18.10;81.50;;;;;;10273425;28;20038;-62
2022/07/17 23:38:32;;;;;;;1.83;0.30;;;18.00;81.80;;;;;;10283053;28;20441;-61
2022/07/17 23:43:34;;;;;;;0.50;0.30;;;17.90;82.20;;;;;;10285371;28;20054;-60
2022/07/17 23:48:36;;;;;;;0.80;0.30;;;17.70;82.90;;;;;;10298966;28;20054;-61
2022/07/17 23:53:39;;;;;;;1.58;0.30;;;17.60;84.40;;;;;;10287898;28;20493;-62
2022/07/17 23:58:40;;;;;;;3.03;0.30;;;17.60;83.30;;;;;;10276306;28;20415;-61
